createdAt,value
2023-05-14T00:01:08.537Z,6.30
2023-05-14T00:03:56.819Z,7.00
2023-05-14T00:06:47.234Z,8.30
2023-05-14T00:09:36.205Z,6.70
2023-05-14T00:12:24.967Z,7.90
2023-05-14T00:15:13.307Z,8.10
2023-05-14T00:18:01.098Z,6.80
2023-05-14T00:20:49.456Z,6.70
2023-05-14T00:23:37.630Z,6.20
2023-05-14T00:26:25.777Z,6.70
2023-05-14T00:29:13.874Z,6.00
2023-05-14T00:32:01.757Z,5.90
2023-05-14T00:34:50.875Z,5.90
2023-05-14T00:37:40.475Z,5.90
2023-05-14T00:40:29.934Z,6.40
2023-05-14T00:43:20.784Z,6.60
2023-05-14T00:46:09.175Z,6.20
2023-05-14T00:49:00.001Z,6.50
2023-05-14T00:51:48.477Z,7.10
2023-05-14T00:54:37.095Z,6.10
2023-05-14T00:57:25.144Z,6.70
2023-05-14T01:00:15.187Z,6.90
2023-05-14T01:03:05.396Z,6.60
2023-05-14T01:06:26.669Z,5.90
2023-05-14T01:09:35.302Z,6.20
2023-05-14T01:12:38.631Z,6.40
2023-05-14T01:15:34.804Z,5.50
2023-05-14T01:18:24.526Z,5.90
2023-05-14T01:21:43.109Z,5.10
2023-05-14T01:24:31.185Z,5.80
2023-05-14T01:28:13.663Z,5.40
2023-05-14T01:31:14.562Z,5.60
2023-05-14T01:34:05.752Z,5.70
2023-05-14T01:36:58.972Z,5.70
2023-05-14T01:39:47.801Z,5.60
2023-05-14T01:42:36.973Z,5.90
2023-05-14T01:45:25.218Z,6.10
2023-05-14T01:48:13.314Z,6.60
2023-05-14T01:51:03.217Z,6.70
2023-05-14T01:53:51.446Z,6.60
2023-05-14T01:56:39.429Z,6.60
2023-05-14T01:59:29.952Z,6.80
2023-05-14T02:02:18.291Z,7.40
2023-05-14T02:05:09.600Z,6.90
2023-05-14T02:07:58.312Z,6.20
2023-05-14T02:10:46.866Z,6.80
2023-05-14T02:13:35.004Z,6.70
2023-05-14T02:16:23.054Z,6.70
2023-05-14T02:19:14.735Z,6.20
2023-05-14T02:22:04.002Z,6.30
2023-05-14T02:24:52.476Z,6.50
2023-05-14T02:27:40.844Z,5.70
2023-05-14T02:30:30.203Z,6.40
2023-05-14T02:33:19.065Z,6.50
2023-05-14T02:36:08.792Z,6.30
2023-05-14T02:39:01.241Z,6.10
2023-05-14T02:41:49.001Z,6.00
2023-05-14T02:44:38.297Z,6.90
2023-05-14T02:47:26.222Z,6.40
2023-05-14T02:50:14.602Z,6.10
2023-05-14T02:53:02.602Z,6.30
2023-05-14T02:55:50.834Z,5.90
2023-05-14T02:58:39.465Z,6.10
2023-05-14T03:01:27.513Z,6.30
2023-05-14T03:04:16.369Z,6.80
2023-05-14T03:07:04.678Z,7.20
2023-05-14T03:09:52.469Z,7.00
2023-05-14T03:12:41.888Z,6.70
2023-05-14T03:15:29.860Z,6.50
2023-05-14T03:18:17.952Z,5.90
2023-05-14T03:21:09.277Z,6.30
2023-05-14T03:23:57.498Z,5.90
2023-05-14T03:26:45.584Z,6.80
2023-05-14T03:29:33.826Z,6.70
2023-05-14T03:32:22.112Z,6.80
2023-05-14T03:35:11.337Z,6.20
2023-05-14T03:38:00.033Z,6.70
2023-05-14T03:40:51.426Z,6.50
2023-05-14T03:43:40.159Z,6.80
2023-05-14T03:46:29.455Z,6.60
2023-05-14T03:49:18.064Z,6.90
2023-05-14T03:52:06.701Z,6.00
2023-05-14T03:54:55.996Z,6.00
2023-05-14T03:57:46.235Z,6.20
2023-05-14T04:00:34.766Z,6.90
2023-05-14T04:03:22.955Z,6.10
2023-05-14T04:06:11.480Z,6.80
2023-05-14T04:08:59.955Z,6.80
2023-05-14T04:11:48.556Z,6.40
2023-05-14T04:14:38.781Z,5.80
2023-05-14T04:17:27.761Z,6.70
2023-05-14T04:20:15.942Z,6.80
2023-05-14T04:23:05.887Z,6.60
2023-05-14T04:25:53.825Z,6.90
2023-05-14T04:28:41.900Z,7.20
2023-05-14T04:31:31.831Z,6.00
2023-05-14T04:34:20.605Z,6.80
2023-05-14T04:37:09.114Z,7.00
2023-05-14T04:39:57.331Z,6.80
2023-05-14T04:42:45.592Z,6.30
2023-05-14T04:45:34.375Z,7.00
2023-05-14T04:48:25.365Z,7.00
2023-05-14T04:51:14.028Z,7.60
2023-05-14T04:54:02.581Z,6.80
2023-05-14T04:56:55.200Z,7.20
2023-05-14T04:59:44.250Z,6.90
2023-05-14T05:02:34.887Z,6.40
2023-05-14T05:05:31.156Z,6.60
2023-05-14T05:08:24.057Z,6.40
2023-05-14T05:11:16.452Z,5.80
2023-05-14T05:14:04.916Z,5.80
2023-05-14T05:16:52.753Z,6.00
2023-05-14T05:19:44.128Z,6.00
2023-05-14T05:22:33.306Z,5.60
2023-05-14T05:25:21.386Z,7.30
2023-05-14T05:28:09.658Z,5.20
2023-05-14T05:30:57.483Z,4.10
2023-05-14T05:33:45.798Z,4.20
2023-05-14T05:36:34.063Z,3.60
2023-05-14T05:39:22.081Z,3.70
2023-05-14T05:42:22.709Z,3.30
2023-05-14T05:45:11.479Z,3.70
2023-05-14T05:48:02.436Z,3.60
2023-05-14T05:50:51.576Z,3.70
2023-05-14T05:53:39.700Z,3.50
2023-05-14T05:56:28.494Z,3.20
2023-05-14T05:59:16.993Z,3.20
2023-05-14T06:02:06.984Z,3.20
2023-05-14T06:04:54.947Z,3.30
2023-05-14T06:07:43.212Z,2.80
2023-05-14T06:10:32.019Z,3.10
2023-05-14T06:13:20.700Z,3.00
2023-05-14T06:16:08.924Z,3.00
2023-05-14T06:18:56.947Z,3.00
2023-05-14T06:21:45.124Z,2.90
2023-05-14T06:24:33.132Z,3.10
2023-05-14T06:27:23.605Z,3.30
2023-05-14T06:30:12.793Z,2.80
2023-05-14T06:33:00.826Z,2.80
2023-05-14T06:35:49.353Z,3.70
2023-05-14T06:38:37.734Z,2.70
2023-05-14T06:41:26.319Z,2.80
2023-05-14T06:44:17.216Z,2.60
2023-05-14T06:47:08.858Z,2.80
2023-05-14T06:49:58.903Z,2.30
2023-05-14T06:52:47.698Z,2.90
2023-05-14T06:55:36.180Z,2.60
2023-05-14T06:58:24.466Z,2.80
2023-05-14T07:01:12.813Z,2.70
2023-05-14T07:04:03.032Z,2.70
2023-05-14T07:06:51.613Z,3.10
2023-05-14T07:09:42.231Z,2.80
2023-05-14T07:12:31.317Z,2.80
2023-05-14T07:15:20.202Z,3.00
2023-05-14T07:18:08.035Z,3.10
2023-05-14T07:20:57.145Z,2.90
2023-05-14T07:23:45.315Z,3.00
2023-05-14T07:26:33.764Z,2.90
2023-05-14T07:29:21.873Z,2.90
2023-05-14T07:32:09.967Z,2.70
2023-05-14T07:34:57.926Z,2.70
2023-05-14T07:37:46.816Z,2.80
2023-05-14T07:40:37.840Z,2.40
2023-05-14T07:43:27.150Z,2.50
2023-05-14T07:46:18.204Z,2.40
2023-05-14T07:49:05.960Z,2.40
2023-05-14T07:51:54.286Z,2.70
2023-05-14T07:54:44.664Z,2.70
2023-05-14T07:57:34.288Z,7.10
2023-05-14T08:00:22.726Z,2.70
2023-05-14T08:03:11.956Z,2.30
2023-05-14T08:06:00.177Z,2.20
2023-05-14T08:08:50.510Z,2.50
2023-05-14T08:11:39.352Z,2.40
2023-05-14T08:14:27.919Z,2.80
2023-05-14T08:17:16.973Z,2.50
2023-05-14T08:20:07.025Z,2.50
2023-05-14T08:22:58.752Z,2.60
2023-05-14T08:25:48.453Z,2.30
2023-05-14T08:28:36.622Z,2.10
2023-05-14T08:31:27.307Z,2.40
2023-05-14T08:34:16.628Z,2.60
2023-05-14T08:37:05.894Z,2.40
2023-05-14T08:39:54.711Z,2.70
2023-05-14T08:42:45.246Z,2.60
2023-05-14T08:45:38.967Z,2.40
2023-05-14T08:48:34.020Z,2.70
2023-05-14T08:51:22.500Z,2.70
2023-05-14T08:54:15.429Z,2.60
2023-05-14T08:57:05.099Z,2.70
2023-05-14T08:59:56.515Z,2.60
2023-05-14T09:02:46.723Z,2.50
2023-05-14T09:05:35.063Z,2.70
2023-05-14T09:08:23.862Z,2.80
2023-05-14T09:11:13.673Z,2.40
2023-05-14T09:14:01.801Z,2.50
2023-05-14T09:16:51.534Z,2.40
2023-05-14T09:19:41.572Z,2.30
2023-05-14T09:22:33.940Z,2.00
2023-05-14T09:25:28.422Z,2.20
2023-05-14T09:28:18.883Z,1.70
2023-05-14T09:31:07.344Z,2.10
2023-05-14T09:33:55.349Z,2.20
2023-05-14T09:36:43.672Z,2.50
2023-05-14T09:39:33.917Z,2.20
2023-05-14T09:42:21.701Z,2.20
2023-05-14T09:45:11.452Z,2.80
2023-05-14T09:48:01.490Z,2.60
2023-05-14T09:50:50.738Z,2.70
2023-05-14T09:53:41.599Z,2.60
2023-05-14T09:56:30.832Z,2.50
2023-05-14T09:59:19.214Z,2.90
2023-05-14T10:02:37.875Z,2.40
2023-05-14T10:05:37.489Z,2.10
2023-05-14T10:08:36.678Z,2.40
2023-05-14T10:11:31.177Z,2.80
2023-05-14T10:14:27.136Z,2.60
2023-05-14T10:17:18.626Z,2.30
2023-05-14T10:20:12.196Z,2.40
2023-05-14T10:23:03.867Z,6.10
2023-05-14T10:25:55.664Z,2.60
2023-05-14T10:28:50.022Z,2.60
2023-05-14T10:31:48.636Z,2.50
2023-05-14T10:34:38.978Z,2.80
2023-05-14T10:37:28.461Z,2.80
2023-05-14T10:40:18.695Z,2.40
2023-05-14T10:43:09.037Z,2.70
2023-05-14T10:45:58.967Z,2.90
2023-05-14T10:48:47.428Z,2.80
2023-05-14T10:51:36.955Z,2.70
2023-05-14T10:54:29.373Z,3.10
2023-05-14T10:57:23.216Z,2.90
2023-05-14T11:00:14.216Z,2.70
2023-05-14T11:03:06.090Z,2.90
2023-05-14T11:05:55.800Z,2.90
2023-05-14T11:08:46.612Z,3.00
2023-05-14T11:11:36.952Z,2.80
2023-05-14T11:14:25.201Z,3.00
2023-05-14T11:17:13.630Z,2.90
2023-05-14T11:20:02.106Z,3.30
2023-05-14T11:22:51.940Z,3.00
2023-05-14T11:25:42.079Z,3.40
2023-05-14T11:28:31.372Z,3.80
2023-05-14T11:31:23.465Z,3.80
2023-05-14T11:34:13.676Z,3.40
2023-05-14T11:37:07.621Z,3.70
2023-05-14T11:40:00.803Z,3.60
2023-05-14T11:42:53.871Z,3.70
2023-05-14T11:45:43.031Z,3.90
2023-05-14T11:48:34.632Z,3.90
2023-05-14T11:51:23.535Z,4.10
2023-05-14T11:54:14.464Z,4.00
2023-05-14T11:57:09.012Z,4.40
2023-05-14T11:59:58.064Z,4.70
2023-05-14T12:02:50.195Z,4.00
2023-05-14T12:05:40.497Z,3.70
2023-05-14T12:08:33.256Z,3.70
2023-05-14T12:11:23.138Z,3.60
2023-05-14T12:14:16.328Z,3.70
2023-05-14T12:17:09.965Z,3.50
2023-05-14T12:19:57.991Z,4.10
2023-05-14T12:22:46.299Z,4.10
2023-05-14T12:25:41.778Z,4.20
2023-05-14T12:28:36.948Z,3.70
2023-05-14T12:31:35.070Z,4.20
2023-05-14T12:34:23.100Z,4.20
2023-05-14T12:37:12.032Z,4.00
2023-05-14T12:40:00.566Z,3.90
2023-05-14T12:42:49.122Z,4.00
2023-05-14T12:45:37.333Z,4.30
2023-05-14T12:48:26.269Z,4.20
2023-05-14T12:51:15.781Z,4.40
2023-05-14T12:54:05.046Z,4.20
2023-05-14T12:56:53.068Z,4.30
2023-05-14T12:59:41.704Z,4.20
2023-05-14T13:02:30.771Z,4.40
2023-05-14T13:05:19.142Z,4.20
2023-05-14T13:08:08.325Z,4.00
2023-05-14T13:10:57.853Z,4.10
2023-05-14T13:13:46.104Z,4.20
2023-05-14T13:16:34.588Z,4.40
2023-05-14T13:19:24.850Z,4.60
2023-05-14T13:22:18.958Z,3.90
2023-05-14T13:25:08.802Z,4.20
2023-05-14T13:27:59.451Z,4.60
2023-05-14T13:31:08.003Z,4.30
2023-05-14T13:33:58.362Z,4.20
2023-05-14T13:36:47.340Z,4.80
2023-05-14T13:39:35.638Z,4.10
2023-05-14T13:42:24.108Z,4.40
2023-05-14T13:45:13.362Z,4.20
2023-05-14T13:48:01.639Z,4.70
2023-05-14T13:50:50.591Z,4.30
2023-05-14T13:53:38.868Z,4.10
2023-05-14T13:56:27.926Z,4.30
2023-05-14T13:59:16.760Z,4.10
2023-05-14T14:02:05.599Z,3.70
2023-05-14T14:04:53.796Z,3.90
2023-05-14T14:07:42.323Z,4.00
2023-05-14T14:10:31.083Z,3.80
2023-05-14T14:13:21.377Z,3.50
2023-05-14T14:16:12.714Z,4.10
2023-05-14T14:19:01.694Z,3.30
2023-05-14T14:24:38.981Z,3.30
2023-05-14T14:27:28.457Z,3.50
2023-05-14T14:30:16.132Z,3.20
2023-05-14T14:33:04.672Z,10.50
2023-05-14T14:35:53.990Z,4.60
2023-05-14T14:38:42.804Z,3.30
2023-05-14T14:41:31.130Z,3.40
2023-05-14T14:44:22.480Z,3.00
2023-05-14T14:47:10.723Z,3.70
2023-05-14T14:49:59.152Z,3.60
2023-05-14T14:52:48.256Z,3.70
2023-05-14T14:55:37.195Z,4.40
2023-05-14T14:58:25.550Z,4.30
2023-05-14T15:01:14.917Z,4.60
2023-05-14T15:04:04.003Z,4.10
2023-05-14T15:06:52.478Z,3.70
2023-05-14T15:09:42.511Z,4.10
2023-05-14T15:12:31.041Z,4.10
2023-05-14T15:15:19.638Z,5.70
2023-05-14T15:18:08.099Z,4.00
2023-05-14T15:20:57.179Z,4.50
2023-05-14T15:23:47.748Z,6.00
2023-05-14T15:26:35.994Z,5.50
2023-05-14T15:29:27.155Z,5.50
2023-05-14T15:32:15.792Z,4.00
2023-05-14T15:35:05.148Z,4.50
2023-05-14T15:37:59.748Z,4.20
2023-05-14T15:40:50.984Z,3.80
2023-05-14T15:43:42.698Z,3.80
2023-05-14T15:46:33.121Z,3.90
2023-05-14T15:49:21.707Z,3.90
2023-05-14T15:52:13.684Z,4.00
2023-05-14T15:55:01.599Z,4.10
2023-05-14T15:57:50.569Z,3.70
2023-05-14T16:00:41.212Z,3.80
2023-05-14T16:03:33.652Z,3.70
2023-05-14T16:06:25.573Z,3.70
2023-05-14T16:09:13.349Z,3.50
2023-05-14T16:12:03.121Z,3.50
2023-05-14T16:14:52.299Z,3.50
2023-05-14T16:17:42.678Z,3.50
2023-05-14T16:20:31.234Z,3.20
2023-05-14T16:23:21.279Z,3.50
2023-05-14T16:26:09.307Z,3.90
2023-05-14T16:28:58.472Z,3.80
2023-05-14T16:31:52.232Z,7.10
2023-05-14T16:34:42.086Z,4.30
2023-05-14T16:37:32.116Z,3.00
2023-05-14T16:40:22.355Z,3.20
2023-05-14T16:43:11.572Z,3.10
2023-05-14T16:46:02.366Z,3.30
2023-05-14T16:48:52.671Z,3.40
2023-05-14T16:51:44.362Z,3.40
2023-05-14T16:54:34.734Z,3.10
2023-05-14T16:57:25.718Z,3.80
2023-05-14T17:00:15.949Z,4.10
2023-05-14T17:03:04.901Z,3.70
2023-05-14T17:05:53.951Z,3.30
2023-05-14T17:08:42.062Z,3.30
2023-05-14T17:11:30.230Z,3.30
2023-05-14T17:14:18.658Z,3.20
2023-05-14T17:17:07.523Z,3.80
2023-05-14T17:19:56.766Z,3.40
2023-05-14T17:22:45.223Z,3.20
2023-05-14T17:25:33.768Z,3.20
2023-05-14T17:28:27.089Z,3.20
2023-05-14T17:31:18.755Z,3.10
2023-05-14T17:34:07.635Z,3.30
2023-05-14T17:36:56.223Z,3.80
2023-05-14T17:39:44.342Z,3.50
2023-05-14T17:42:32.590Z,3.60
2023-05-14T17:45:21.586Z,3.70
2023-05-14T17:48:12.503Z,3.70
2023-05-14T17:51:01.004Z,3.40
2023-05-14T17:53:49.666Z,3.60
2023-05-14T17:56:38.037Z,3.40
2023-05-14T17:59:26.620Z,3.50
2023-05-14T18:02:16.702Z,3.40
2023-05-14T18:05:05.604Z,3.60
2023-05-14T18:07:55.291Z,3.80
2023-05-14T18:10:44.119Z,4.10
2023-05-14T18:13:35.098Z,4.10
2023-05-14T18:16:24.131Z,3.70
2023-05-14T18:19:15.197Z,4.40
2023-05-14T18:22:03.656Z,3.80
2023-05-14T18:24:52.865Z,4.10
2023-05-14T18:27:44.633Z,4.30
2023-05-14T18:30:33.423Z,4.90
2023-05-14T18:33:24.138Z,4.40
2023-05-14T18:36:13.457Z,5.00
2023-05-14T18:39:05.795Z,4.10
2023-05-14T18:41:56.683Z,3.60
2023-05-14T18:44:44.868Z,3.60
2023-05-14T18:47:34.749Z,3.90
2023-05-14T18:50:27.132Z,3.70
2023-05-14T18:53:15.347Z,3.60
2023-05-14T18:56:05.200Z,4.10
2023-05-14T18:58:55.051Z,4.30
2023-05-14T19:01:43.581Z,4.30
2023-05-14T19:04:33.552Z,4.20
2023-05-14T19:07:27.950Z,4.00
2023-05-14T19:10:18.953Z,3.90
2023-05-14T19:13:07.087Z,4.60
2023-05-14T19:15:56.103Z,4.30
2023-05-14T19:18:44.113Z,5.80
2023-05-14T19:21:32.873Z,7.90
2023-05-14T19:24:20.680Z,9.40
2023-05-14T19:27:19.414Z,8.30
2023-05-14T19:30:09.425Z,7.60
2023-05-14T19:33:04.595Z,6.40
2023-05-14T19:35:56.281Z,5.00
2023-05-14T19:38:44.830Z,4.50
2023-05-14T19:41:34.979Z,4.70
2023-05-14T19:44:24.480Z,4.80
2023-05-14T19:47:14.137Z,4.70
2023-05-14T19:50:04.404Z,4.90
2023-05-14T19:52:52.688Z,4.50
2023-05-14T19:55:44.338Z,4.90
2023-05-14T19:58:34.847Z,4.90
2023-05-14T20:01:23.025Z,4.90
2023-05-14T20:04:11.561Z,5.10
2023-05-14T20:07:01.303Z,5.60
2023-05-14T20:09:49.561Z,5.90
2023-05-14T20:12:37.997Z,6.90
2023-05-14T20:15:26.857Z,7.90
2023-05-14T20:18:15.283Z,6.80
2023-05-14T20:21:05.712Z,6.10
2023-05-14T20:23:54.182Z,7.10
2023-05-14T20:26:44.104Z,4.90
2023-05-14T20:29:35.073Z,4.90
2023-05-14T20:32:25.167Z,4.80
2023-05-14T20:35:14.747Z,4.60
2023-05-14T20:38:04.563Z,4.40
2023-05-14T20:40:54.058Z,5.10
2023-05-14T20:43:44.582Z,4.50
2023-05-14T20:46:33.169Z,4.60
2023-05-14T20:49:21.389Z,4.90
2023-05-14T20:52:10.315Z,5.20
2023-05-14T20:55:00.755Z,5.10
2023-05-14T20:57:49.932Z,4.70
2023-05-14T21:00:39.317Z,4.70
2023-05-14T21:03:27.555Z,5.30
2023-05-14T21:06:16.420Z,5.10
2023-05-14T21:09:04.622Z,5.60
2023-05-14T21:11:54.143Z,5.30
2023-05-14T21:14:43.365Z,5.30
2023-05-14T21:17:34.652Z,5.80
2023-05-14T21:20:25.072Z,4.90
2023-05-14T21:23:14.816Z,4.70
2023-05-14T21:26:03.432Z,5.10
2023-05-14T21:28:53.459Z,5.10
2023-05-14T21:31:41.386Z,5.70
2023-05-14T21:34:31.234Z,5.60
2023-05-14T21:37:21.945Z,6.00
2023-05-14T21:40:12.585Z,6.00
2023-05-14T21:43:06.153Z,6.20
2023-05-14T21:45:54.508Z,5.80
2023-05-14T21:48:42.604Z,6.30
2023-05-14T21:51:32.354Z,6.40
2023-05-14T21:54:21.173Z,6.10
2023-05-14T21:57:09.519Z,6.60
2023-05-14T21:59:58.289Z,6.10
2023-05-14T22:02:47.235Z,6.40
2023-05-14T22:05:36.963Z,6.30
2023-05-14T22:08:24.948Z,6.20
2023-05-14T22:11:13.781Z,5.90
2023-05-14T22:14:04.407Z,6.30
2023-05-14T22:16:55.286Z,6.20
2023-05-14T22:19:43.781Z,5.80
2023-05-14T22:22:32.379Z,5.90
2023-05-14T22:25:20.351Z,5.80
2023-05-14T22:28:08.406Z,6.20
2023-05-14T22:30:59.873Z,6.20
2023-05-14T22:33:47.689Z,6.30
2023-05-14T22:36:35.794Z,5.80
2023-05-14T22:39:24.005Z,5.70
2023-05-14T22:42:12.242Z,5.70
2023-05-14T22:45:00.297Z,5.90
2023-05-14T22:47:49.207Z,13.40
2023-05-14T22:50:37.346Z,6.90
2023-05-14T22:53:25.676Z,6.00
2023-05-14T22:56:15.541Z,5.80
2023-05-14T22:59:04.307Z,5.40
2023-05-14T23:01:52.174Z,5.90
2023-05-14T23:04:40.625Z,5.80
2023-05-14T23:07:28.784Z,6.30
2023-05-14T23:10:17.992Z,6.00
2023-05-14T23:13:06.851Z,5.90
2023-05-14T23:15:55.881Z,5.90
2023-05-14T23:18:45.086Z,5.70
2023-05-14T23:21:33.390Z,6.00
2023-05-14T23:24:22.405Z,5.60
2023-05-14T23:27:11.818Z,6.10
2023-05-14T23:29:59.924Z,6.30
2023-05-14T23:32:49.810Z,5.50
2023-05-14T23:35:39.876Z,5.90
2023-05-14T23:38:27.647Z,6.10
2023-05-14T23:41:15.814Z,5.90
2023-05-14T23:44:04.032Z,5.70
2023-05-14T23:46:53.721Z,5.80
2023-05-14T23:49:41.969Z,6.10
2023-05-14T23:52:30.066Z,6.20
2023-05-14T23:55:19.232Z,6.70
2023-05-14T23:58:07.633Z,6.50
